Time;durP1;ratioP1;P1;durP2;ratioP2;P2;SDS_P1;SDS_P2;PMS_P1;PMS_P2;Temp;Humidity;BMP_temperature;BMP_pressure;BME280_temperature;BME280_humidity;BME280_pressure;Samples;Min_cycle;Max_cycle;Signal;HPM_P1;HPM_P2
2023/08/25 00:02:08;;;;;;;6.30;3.20;;;22.70;70.10;;;;;;5030453;28;20121;-53
2023/08/25 00:04:35;;;;;;;3.78;3.33;;;22.60;70.70;;;;;;5030646;28;20518;-57
2023/08/25 00:07:02;;;;;;;2.95;2.63;;;22.70;70.20;;;;;;5031503;28;20042;-54
2023/08/25 00:09:33;;;;;;;2.80;2.50;;;22.70;70.30;;;;;;5025375;28;20046;-53
2023/08/25 00:12:03;;;;;;;3.40;2.72;;;22.60;70.30;;;;;;5031731;28;20052;-52
2023/08/25 00:14:32;;;;;;;5.07;2.30;;;22.60;70.30;;;;;;5029515;28;20065;-54
2023/08/25 00:16:59;;;;;;;2.83;2.60;;;22.60;70.30;;;;;;5031727;28;20052;-51
2023/08/25 00:19:28;;;;;;;5.07;2.35;;;22.60;70.20;;;;;;5031017;28;20045;-53
2023/08/25 00:21:56;;;;;;;4.25;2.38;;;22.60;70.40;;;;;;5031353;28;20061;-53
2023/08/25 00:24:23;;;;;;;2.67;2.47;;;22.60;70.20;;;;;;5030801;28;20065;-51
2023/08/25 00:26:50;;;;;;;3.92;2.40;;;22.60;70.20;;;;;;5030760;28;20120;-53
2023/08/25 00:29:16;;;;;;;5.10;2.50;;;22.60;70.30;;;;;;5029970;28;20058;-55
2023/08/25 00:31:57;;;;;;;3.95;2.40;;;22.60;70.30;;;;;;5012806;28;20050;-50
2023/08/25 00:34:24;;;;;;;4.18;2.15;;;22.60;70.20;;;;;;5031264;28;20104;-52
2023/08/25 00:36:50;;;;;;;2.10;1.90;;;22.50;70.20;;;;;;5011302;28;20491;-51
2023/08/25 00:39:19;;;;;;;4.82;2.25;;;22.50;70.20;;;;;;5025992;28;20042;-51
2023/08/25 00:41:46;;;;;;;5.38;2.13;;;22.50;70.20;;;;;;5010982;28;20137;-53
2023/08/25 00:44:18;;;;;;;2.65;2.10;;;22.50;70.10;;;;;;5009939;28;20042;-53
2023/08/25 00:46:47;;;;;;;4.53;2.28;;;22.50;70.00;;;;;;5003212;28;20100;-54
2023/08/25 00:49:14;;;;;;;3.88;1.95;;;22.50;69.90;;;;;;5018529;28;20077;-52
2023/08/25 00:51:40;;;;;;;2.50;2.00;;;22.50;69.90;;;;;;5013907;28;20076;-54
2023/08/25 00:54:10;;;;;;;2.95;1.92;;;22.40;69.80;;;;;;5010786;28;20152;-52
2023/08/25 00:56:40;;;;;;;2.47;2.10;;;22.40;70.10;;;;;;5031436;28;20067;-54
2023/08/25 00:59:09;;;;;;;1.95;1.70;;;22.40;70.30;;;;;;5010808;28;20069;-52
2023/08/25 01:01:36;;;;;;;4.20;2.22;;;22.40;70.30;;;;;;5011352;28;20045;-53
2023/08/25 01:04:07;;;;;;;2.30;2.10;;;22.40;70.40;;;;;;5012111;28;20041;-52
2023/08/25 01:06:39;;;;;;;4.13;2.60;;;22.40;70.50;;;;;;5030051;28;20041;-51
2023/08/25 01:09:12;;;;;;;3.00;2.05;;;22.40;70.60;;;;;;5024924;28;20064;-54
2023/08/25 01:12:12;;;;;;;2.70;2.25;;;22.40;70.60;;;;;;5031271;28;20041;-53
2023/08/25 01:14:49;;;;;;;2.40;2.00;;;22.40;70.80;;;;;;5008878;28;20081;-54
2023/08/25 01:17:39;;;;;;;4.35;2.05;;;22.40;70.50;;;;;;5018122;28;20464;-50
2023/08/25 01:20:08;;;;;;;4.20;2.38;;;22.40;70.20;;;;;;5027682;28;20492;-54
2023/08/25 01:23:02;;;;;;;4.25;2.38;;;22.30;70.20;;;;;;5029342;28;20045;-51
2023/08/25 01:25:31;;;;;;;4.72;2.45;;;22.40;70.60;;;;;;5023767;28;20050;-54
2023/08/25 01:28:02;;;;;;;7.85;3.33;;;22.30;70.30;;;;;;5010489;28;20092;-52
2023/08/25 01:30:34;;;;;;;7.32;3.38;;;22.30;70.40;;;;;;5021350;28;20073;-51
2023/08/25 01:33:03;;;;;;;4.70;2.88;;;22.30;70.40;;;;;;5013953;28;20052;-54
2023/08/25 01:36:05;;;;;;;8.98;4.28;;;22.30;70.40;;;;;;5029665;28;20045;-51
2023/08/25 01:38:51;;;;;;;7.40;2.97;;;22.30;70.90;;;;;;5006329;28;20053;-54
2023/08/25 01:41:37;;;;;;;7.00;3.65;;;22.30;70.80;;;;;;5024921;28;20057;-54
2023/08/25 01:44:08;;;;;;;6.97;3.45;;;22.30;70.60;;;;;;5029726;28;20458;-54
2023/08/25 01:46:51;;;;;;;7.78;4.03;;;22.30;70.50;;;;;;5029682;28;20036;-54
2023/08/25 01:49:19;;;;;;;7.50;3.03;;;22.30;70.60;;;;;;5009059;28;20446;-50
2023/08/25 01:51:46;;;;;;;5.07;2.85;;;22.30;70.50;;;;;;5030783;28;20380;-54
2023/08/25 01:54:17;;;;;;;5.60;3.63;;;22.20;70.50;;;;;;5011976;28;20492;-53
2023/08/25 01:56:45;;;;;;;9.95;3.25;;;22.20;70.70;;;;;;5022666;28;20139;-52
2023/08/25 01:59:15;;;;;;;8.10;3.78;;;22.20;70.40;;;;;;5025903;28;20041;-54
2023/08/25 02:01:45;;;;;;;7.45;3.00;;;22.20;70.30;;;;;;5010603;28;20050;-54
2023/08/25 02:04:12;;;;;;;5.30;2.80;;;22.20;70.20;;;;;;5028507;28;20080;-54
2023/08/25 02:06:39;;;;;;;5.40;3.03;;;22.20;70.00;;;;;;5009679;28;20082;-51
2023/08/25 02:09:07;;;;;;;5.63;2.97;;;22.10;70.10;;;;;;5027916;28;20034;-50
2023/08/25 02:11:33;;;;;;;8.57;3.13;;;22.10;70.30;;;;;;5028375;28;20099;-53
2023/08/25 02:14:01;;;;;;;6.72;2.75;;;22.10;70.40;;;;;;5011166;28;20053;-53
2023/08/25 02:16:28;;;;;;;6.22;2.90;;;22.10;70.30;;;;;;5007180;28;20037;-54
2023/08/25 02:18:57;;;;;;;3.85;2.22;;;22.00;70.20;;;;;;5029066;28;20033;-53
2023/08/25 02:21:24;;;;;;;5.88;3.10;;;22.00;70.00;;;;;;5008674;28;20099;-57
2023/08/25 02:23:55;;;;;;;6.15;2.78;;;22.00;70.10;;;;;;5028927;28;20041;-57
2023/08/25 02:26:22;;;;;;;3.65;2.45;;;22.00;70.20;;;;;;5005574;28;20560;-52
2023/08/25 02:28:54;;;;;;;6.57;2.60;;;21.90;70.20;;;;;;5010193;28;20069;-54
2023/08/25 02:31:25;;;;;;;5.88;2.38;;;21.90;70.00;;;;;;5015885;28;20049;-54
2023/08/25 02:33:54;;;;;;;4.07;2.63;;;21.90;70.00;;;;;;5010693;28;20038;-53
2023/08/25 02:36:20;;;;;;;4.57;2.47;;;21.90;70.00;;;;;;5029562;28;20045;-51
2023/08/25 02:38:50;;;;;;;4.50;2.50;;;21.90;70.00;;;;;;5028153;28;20038;-54
2023/08/25 02:41:16;;;;;;;4.25;2.25;;;21.80;70.00;;;;;;5028011;28;20060;-55
2023/08/25 02:43:46;;;;;;;7.15;2.63;;;21.80;69.90;;;;;;5010826;28;20415;-60
2023/08/25 02:46:13;;;;;;;4.05;1.95;;;21.80;70.00;;;;;;5010716;28;20060;-54
2023/08/25 02:48:42;;;;;;;5.63;2.40;;;21.70;69.80;;;;;;5006701;28;20045;-52
2023/08/25 02:51:10;;;;;;;5.32;2.35;;;21.70;69.70;;;;;;5026432;28;20033;-54
2023/08/25 02:53:38;;;;;;;5.63;2.30;;;21.70;69.70;;;;;;5011373;28;20057;-58
2023/08/25 02:56:07;;;;;;;5.43;2.13;;;21.70;69.60;;;;;;5008815;28;20982;-57
2023/08/25 02:58:34;;;;;;;6.00;1.98;;;21.60;69.60;;;;;;5024520;28;20038;-55
2023/08/25 03:01:11;;;;;;;4.35;2.20;;;21.60;69.60;;;;;;5028042;28;20037;-51
2023/08/25 03:03:39;;;;;;;3.92;2.30;;;21.60;69.80;;;;;;5029768;28;20547;-56
2023/08/25 03:06:11;;;;;;;4.75;2.92;;;21.50;69.50;;;;;;5026933;28;20041;-54
2023/08/25 03:08:38;;;;;;;3.35;2.22;;;21.50;69.70;;;;;;5009078;28;20038;-54
2023/08/25 03:11:13;;;;;;;3.05;2.20;;;21.50;69.50;;;;;;5017970;28;20037;-57
2023/08/25 03:13:40;;;;;;;3.45;1.80;;;21.50;69.50;;;;;;5008203;28;20476;-55
2023/08/25 03:16:10;;;;;;;4.35;2.00;;;21.40;69.30;;;;;;5026728;28;20045;-55
2023/08/25 03:18:41;;;;;;;3.33;2.25;;;21.40;69.30;;;;;;5008530;28;20047;-53
2023/08/25 03:21:10;;;;;;;3.40;2.45;;;21.40;69.40;;;;;;5028800;28;20103;-54
2023/08/25 03:23:41;;;;;;;3.53;1.85;;;21.30;69.60;;;;;;5014582;28;20042;-58
2023/08/25 03:26:10;;;;;;;5.82;2.70;;;21.30;69.50;;;;;;5031880;28;20037;-51
2023/08/25 03:28:43;;;;;;;4.38;2.13;;;21.30;69.70;;;;;;5013125;28;20137;-57
2023/08/25 03:31:10;;;;;;;6.13;2.30;;;21.20;69.60;;;;;;5027916;28;20069;-56
2023/08/25 03:33:41;;;;;;;4.75;2.08;;;21.20;69.50;;;;;;5012053;28;20038;-50
2023/08/25 03:36:07;;;;;;;6.60;2.88;;;21.20;69.50;;;;;;5031570;28;20427;-53
2023/08/25 03:38:34;;;;;;;5.25;2.65;;;21.10;69.60;;;;;;5030316;28;20091;-57
2023/08/25 03:41:01;;;;;;;4.70;2.97;;;21.20;69.70;;;;;;5032589;28;20042;-54
2023/08/25 03:43:31;;;;;;;4.47;2.70;;;21.10;69.70;;;;;;5007349;28;20120;-54
2023/08/25 03:45:58;;;;;;;4.80;2.90;;;21.10;70.00;;;;;;5012270;28;20050;-54
2023/08/25 03:48:29;;;;;;;5.35;2.70;;;21.10;70.40;;;;;;5012943;28;20033;-54
2023/08/25 03:51:03;;;;;;;5.80;2.60;;;21.10;70.30;;;;;;5012693;28;20038;-51
2023/08/25 03:53:32;;;;;;;5.18;2.95;;;21.10;70.10;;;;;;5025790;28;20049;-54
2023/08/25 03:55:58;;;;;;;3.30;2.63;;;21.00;70.10;;;;;;5030724;28;20447;-54
2023/08/25 03:58:27;;;;;;;9.98;3.22;;;21.00;70.10;;;;;;5012414;28;20038;-54
2023/08/25 04:00:56;;;;;;;6.70;3.03;;;21.00;70.30;;;;;;5032240;28;20039;-53
2023/08/25 04:03:25;;;;;;;3.58;2.92;;;21.00;70.30;;;;;;5014850;28;20587;-55
2023/08/25 04:05:53;;;;;;;5.05;3.08;;;21.00;70.40;;;;;;5011498;28;20132;-53
2023/08/25 04:08:19;;;;;;;4.38;2.85;;;20.90;70.30;;;;;;5013688;28;20321;-54
2023/08/25 04:10:49;;;;;;;4.70;2.78;;;20.90;70.30;;;;;;5012711;28;20363;-50
2023/08/25 04:13:18;;;;;;;;;;;20.90;70.40;;;;;;5033180;28;20052;-50
2023/08/25 04:15:54;;;;;;;5.30;3.17;;;21.00;70.40;;;;;;5029703;28;19924;-54
2023/08/25 04:18:23;;;;;;;4.93;2.72;;;21.00;70.50;;;;;;5025296;28;20547;-55
2023/08/25 04:20:54;;;;;;;5.22;2.53;;;20.90;70.30;;;;;;5027828;28;20092;-51
2023/08/25 04:23:24;;;;;;;5.35;3.03;;;20.90;70.50;;;;;;5008913;28;20515;-51
2023/08/25 04:25:56;;;;;;;7.00;3.22;;;20.90;70.50;;;;;;5033940;28;20034;-52
2023/08/25 04:28:25;;;;;;;3.30;2.97;;;20.90;70.80;;;;;;5011056;28;20064;-52
2023/08/25 04:30:53;;;;;;;4.85;2.60;;;20.90;70.70;;;;;;5029173;28;20033;-54
2023/08/25 04:33:26;;;;;;;2.92;2.47;;;20.90;70.60;;;;;;5012885;28;20056;-55
2023/08/25 04:35:54;;;;;;;6.78;3.22;;;20.90;70.60;;;;;;5011737;28;20103;-51
2023/08/25 04:38:24;;;;;;;4.15;2.80;;;20.90;70.80;;;;;;5013199;28;20085;-53
2023/08/25 04:40:54;;;;;;;3.70;2.97;;;20.90;70.90;;;;;;5013465;28;20071;-52
2023/08/25 04:43:22;;;;;;;3.83;2.63;;;20.90;71.00;;;;;;5013427;28;20408;-52
2023/08/25 04:45:51;;;;;;;6.28;2.92;;;20.90;70.90;;;;;;5011258;28;20037;-55
2023/08/25 04:48:18;;;;;;;5.20;3.20;;;20.90;71.00;;;;;;5012985;28;20052;-51
2023/08/25 04:50:45;;;;;;;4.65;3.38;;;20.90;70.90;;;;;;5009531;28;20046;-51
2023/08/25 04:53:12;;;;;;;7.72;2.78;;;20.90;70.90;;;;;;5014514;28;20450;-54
2023/08/25 04:55:46;;;;;;;4.68;2.90;;;20.90;71.00;;;;;;5030174;28;20049;-51
2023/08/25 04:58:13;;;;;;;5.85;3.35;;;20.90;71.10;;;;;;5028777;28;20052;-54
2023/08/25 05:00:50;;;;;;;6.88;3.88;;;20.90;71.10;;;;;;5029693;28;20041;-54
2023/08/25 05:03:17;;;;;;;4.88;2.63;;;20.90;71.20;;;;;;5027932;28;20133;-55
2023/08/25 05:05:47;;;;;;;3.85;3.22;;;20.90;71.10;;;;;;5026149;28;20043;-54
2023/08/25 05:08:17;;;;;;;7.15;3.00;;;20.90;71.30;;;;;;5010349;28;20076;-54
2023/08/25 05:10:44;;;;;;;3.85;3.00;;;20.90;71.40;;;;;;5012438;28;20136;-52
2023/08/25 05:13:12;;;;;;;5.05;2.88;;;21.00;71.50;;;;;;5027518;28;20048;-52
2023/08/25 05:15:43;;;;;;;6.75;2.83;;;21.00;71.60;;;;;;5030579;28;20049;-53
2023/08/25 05:18:15;;;;;;;4.10;3.03;;;21.00;71.70;;;;;;5011888;28;20037;-50
2023/08/25 05:20:42;;;;;;;4.55;3.38;;;21.00;71.80;;;;;;5012778;28;20041;-52
2023/08/25 05:23:11;;;;;;;4.38;3.15;;;21.00;71.90;;;;;;5025509;28;20136;-55
2023/08/25 05:25:39;;;;;;;4.25;3.00;;;21.10;72.00;;;;;;5011896;28;20042;-51
2023/08/25 05:28:10;;;;;;;5.03;3.42;;;21.10;72.10;;;;;;5030613;28;20128;-52
2023/08/25 05:30:46;;;;;;;3.72;2.75;;;21.10;72.00;;;;;;5010676;28;20049;-51
2023/08/25 05:33:13;;;;;;;4.80;3.55;;;21.20;72.00;;;;;;5014226;28;20038;-53
2023/08/25 05:35:59;;;;;;;3.10;2.83;;;21.20;72.00;;;;;;5028775;28;20542;-54
2023/08/25 05:38:29;;;;;;;7.60;3.25;;;21.20;71.90;;;;;;5028355;28;20535;-53
2023/08/25 05:40:55;;;;;;;4.10;3.05;;;21.20;71.90;;;;;;5010452;28;20054;-55
2023/08/25 05:43:31;;;;;;;4.70;2.95;;;21.20;72.00;;;;;;5013468;28;20049;-51
2023/08/25 05:45:58;;;;;;;3.45;2.75;;;21.30;72.00;;;;;;5011703;28;20095;-53
2023/08/25 05:48:28;;;;;;;4.75;2.70;;;21.30;72.10;;;;;;5028011;28;20056;-54
2023/08/25 05:51:02;;;;;;;6.78;2.97;;;21.30;72.30;;;;;;5012306;28;20041;-54
2023/08/25 05:53:31;;;;;;;3.78;3.30;;;21.40;72.30;;;;;;5013001;28;20504;-51
2023/08/25 05:55:59;;;;;;;5.88;3.05;;;21.40;72.30;;;;;;5011920;28;20408;-54
2023/08/25 05:58:31;;;;;;;3.20;2.90;;;21.40;72.30;;;;;;5028306;28;20041;-54
2023/08/25 06:01:04;;;;;;;5.68;3.30;;;21.50;72.50;;;;;;5029014;28;20037;-57
2023/08/25 06:03:33;;;;;;;5.22;3.25;;;21.50;72.70;;;;;;5029271;28;20057;-56
2023/08/25 06:06:03;;;;;;;8.05;3.80;;;21.60;72.80;;;;;;5029150;28;20045;-55
2023/08/25 06:08:33;;;;;;;4.15;3.47;;;21.60;72.90;;;;;;5028324;28;20499;-57
2023/08/25 06:11:03;;;;;;;5.63;3.40;;;21.70;73.00;;;;;;5028857;28;20581;-56
2023/08/25 06:13:32;;;;;;;4.60;3.53;;;21.80;73.10;;;;;;5028977;28;20470;-55
2023/08/25 06:16:03;;;;;;;4.10;3.67;;;21.90;73.10;;;;;;5026395;28;20133;-57
2023/08/25 06:18:33;;;;;;;6.70;3.22;;;22.00;73.10;;;;;;5028976;28;20060;-56
2023/08/25 06:21:03;;;;;;;5.32;3.65;;;22.10;73.20;;;;;;5029107;28;20535;-55
2023/08/25 06:23:29;;;;;;;4.18;3.08;;;22.20;73.20;;;;;;5028833;28;20069;-56
2023/08/25 06:25:59;;;;;;;4.35;3.25;;;22.30;73.30;;;;;;5027722;28;20065;-54
2023/08/25 06:28:29;;;;;;;5.22;3.22;;;22.30;72.80;;;;;;5026956;28;20119;-52
2023/08/25 06:30:55;;;;;;;7.10;3.60;;;22.40;72.70;;;;;;5027716;28;20548;-56
2023/08/25 06:33:22;;;;;;;6.88;4.07;;;22.40;72.70;;;;;;5018295;28;20180;-56
2023/08/25 06:35:49;;;;;;;6.57;3.80;;;22.50;72.70;;;;;;5019381;28;20073;-55
2023/08/25 06:38:16;;;;;;;4.93;3.50;;;22.60;73.00;;;;;;5026213;28;20447;-57
2023/08/25 06:40:42;;;;;;;5.75;3.63;;;22.60;72.70;;;;;;5026060;28;20080;-53
2023/08/25 06:43:09;;;;;;;6.85;4.43;;;22.60;72.40;;;;;;5026087;28;20563;-56
2023/08/25 06:45:37;;;;;;;6.38;3.67;;;22.60;72.10;;;;;;5008650;28;20041;-57
2023/08/25 06:48:04;;;;;;;6.35;3.92;;;22.70;72.00;;;;;;5024988;28;20099;-55
2023/08/25 06:50:31;;;;;;;6.13;3.22;;;22.60;71.80;;;;;;5024937;28;20050;-54
2023/08/25 06:52:58;;;;;;;4.50;3.28;;;22.60;71.80;;;;;;5027714;28;20045;-56
2023/08/25 06:55:25;;;;;;;6.05;3.75;;;22.60;71.90;;;;;;5029261;28;20041;-53
2023/08/25 06:57:52;;;;;;;3.83;3.35;;;22.60;71.70;;;;;;5032556;28;20033;-56
2023/08/25 07:00:18;;;;;;;10.85;4.28;;;22.60;71.80;;;;;;5032681;28;20060;-54
2023/08/25 07:02:45;;;;;;;7.50;4.30;;;22.50;72.10;;;;;;5035181;28;20091;-55
2023/08/25 07:05:13;;;;;;;6.32;3.90;;;22.50;72.30;;;;;;5034074;28;20042;-55
2023/08/25 07:07:40;;;;;;;6.18;3.65;;;22.50;72.30;;;;;;5034247;28;20172;-53
2023/08/25 07:10:07;;;;;;;6.53;3.45;;;22.50;72.40;;;;;;5035941;28;20045;-53
2023/08/25 07:12:34;;;;;;;6.40;3.65;;;22.40;72.70;;;;;;5035109;28;20048;-52
2023/08/25 07:15:02;;;;;;;7.53;4.72;;;22.40;72.80;;;;;;5033866;28;20082;-53
2023/08/25 07:17:29;;;;;;;5.43;4.10;;;22.40;72.80;;;;;;5035150;28;20224;-53
2023/08/25 07:19:56;;;;;;;7.35;3.17;;;22.40;72.90;;;;;;5036011;28;20049;-56
2023/08/25 07:22:23;;;;;;;6.45;3.97;;;22.30;73.00;;;;;;5034326;28;20499;-55
2023/08/25 07:24:50;;;;;;;9.63;4.60;;;22.30;73.20;;;;;;5033075;28;20127;-53
2023/08/25 07:27:18;;;;;;;5.28;3.55;;;22.30;73.40;;;;;;5034239;28;20051;-56
2023/08/25 07:29:44;;;;;;;5.25;3.80;;;22.30;73.60;;;;;;5033755;28;20042;-56
2023/08/25 07:32:11;;;;;;;5.22;3.80;;;22.30;73.80;;;;;;5029599;28;20033;-56
2023/08/25 07:34:42;;;;;;;6.53;3.72;;;22.30;73.90;;;;;;5034799;28;20605;-52
2023/08/25 07:37:08;;;;;;;6.63;4.57;;;22.30;74.00;;;;;;5033978;28;20466;-55
2023/08/25 07:39:35;;;;;;;7.03;4.28;;;22.30;73.80;;;;;;5034224;28;20064;-54
2023/08/25 07:42:02;;;;;;;8.02;3.97;;;22.30;73.90;;;;;;5033829;28;20124;-56
2023/08/25 07:44:29;;;;;;;5.35;4.15;;;22.30;73.90;;;;;;5034222;28;20037;-56
2023/08/25 07:46:55;;;;;;;4.75;3.97;;;22.20;73.90;;;;;;5033497;28;20033;-55
2023/08/25 07:49:22;;;;;;;5.70;4.15;;;22.20;74.10;;;;;;5034782;28;20111;-56
2023/08/25 07:51:49;;;;;;;6.22;3.90;;;22.20;74.10;;;;;;5034061;28;20124;-56
2023/08/25 07:54:15;;;;;;;4.97;3.95;;;22.20;74.30;;;;;;5034286;28;20045;-56
2023/08/25 07:56:42;;;;;;;5.00;3.58;;;22.20;74.40;;;;;;5035878;28;20041;-56
2023/08/25 07:59:10;;;;;;;6.22;3.63;;;22.20;74.50;;;;;;5033313;28;20051;-57
2023/08/25 08:01:36;;;;;;;3.47;3.17;;;22.20;74.60;;;;;;5034340;28;20049;-56
2023/08/25 08:04:03;;;;;;;5.15;3.75;;;22.20;74.70;;;;;;5035272;28;20103;-57
2023/08/25 08:06:33;;;;;;;3.53;3.22;;;22.20;75.00;;;;;;5034148;28;20103;-56
2023/08/25 08:09:00;;;;;;;5.95;3.15;;;22.20;75.10;;;;;;5030553;28;20538;-55
2023/08/25 08:11:27;;;;;;;4.40;3.05;;;22.20;75.20;;;;;;5032622;28;20092;-53
2023/08/25 08:13:53;;;;;;;3.03;2.65;;;22.20;75.10;;;;;;5030643;28;20780;-57
2023/08/25 08:16:20;;;;;;;4.07;3.13;;;22.20;75.20;;;;;;5030682;28;20073;-56
2023/08/25 08:18:47;;;;;;;3.70;2.88;;;22.20;75.40;;;;;;5032396;28;20090;-57
2023/08/25 08:21:13;;;;;;;3.38;2.63;;;22.20;75.40;;;;;;5030917;28;20112;-56
2023/08/25 08:23:40;;;;;;;3.42;2.85;;;22.30;75.60;;;;;;5029062;28;20099;-56
2023/08/25 08:26:07;;;;;;;3.85;2.47;;;22.30;75.60;;;;;;5028481;28;20037;-55
2023/08/25 08:28:33;;;;;;;2.50;2.30;;;22.30;75.60;;;;;;5030221;28;20051;-56
2023/08/25 08:31:05;;;;;;;2.38;2.17;;;22.40;75.50;;;;;;5031134;28;20038;-56
2023/08/25 08:33:32;;;;;;;5.80;3.08;;;22.40;75.10;;;;;;5031125;28;20052;-56
2023/08/25 08:35:59;;;;;;;7.30;3.13;;;22.40;75.10;;;;;;5037067;28;20034;-55
2023/08/25 08:38:26;;;;;;;4.05;2.53;;;22.40;75.20;;;;;;5030346;28;20115;-57
2023/08/25 08:41:00;;;;;;;3.38;2.08;;;22.40;75.00;;;;;;5036972;28;20061;-56
2023/08/25 08:43:31;;;;;;;4.68;2.40;;;22.40;74.90;;;;;;5031096;28;20042;-56
2023/08/25 08:45:58;;;;;;;3.00;2.30;;;22.40;74.80;;;;;;5030082;28;20037;-56
2023/08/25 08:48:25;;;;;;;11.57;2.75;;;22.40;74.60;;;;;;5027561;28;20042;-56
2023/08/25 08:50:52;;;;;;;10.05;3.42;;;22.40;74.90;;;;;;5028964;28;20095;-56
2023/08/25 08:53:19;;;;;;;4.75;2.30;;;22.30;74.90;;;;;;5026521;28;20120;-57
2023/08/25 08:55:48;;;;;;;3.30;2.40;;;22.30;75.10;;;;;;5025340;28;20416;-54
2023/08/25 08:58:15;;;;;;;4.40;2.65;;;22.30;75.60;;;;;;5030455;28;20117;-54
2023/08/25 09:00:43;;;;;;;5.45;2.35;;;22.30;75.70;;;;;;5029810;28;20038;-55
2023/08/25 09:03:14;;;;;;;4.65;1.92;;;22.30;75.90;;;;;;5029059;28;20037;-54
2023/08/25 09:05:42;;;;;;;2.78;2.00;;;22.30;75.90;;;;;;5029784;28;20125;-54
2023/08/25 09:08:13;;;;;;;3.00;1.70;;;22.30;75.50;;;;;;5027165;28;20048;-53
2023/08/25 09:10:40;;;;;;;1.98;1.83;;;22.30;75.70;;;;;;5029590;28;20037;-54
2023/08/25 09:13:07;;;;;;;2.17;1.98;;;22.30;75.30;;;;;;5030078;28;20133;-54
2023/08/25 09:15:33;;;;;;;2.65;2.05;;;22.20;75.50;;;;;;5029974;28;20120;-54
2023/08/25 09:18:06;;;;;;;3.88;2.08;;;22.20;75.40;;;;;;5027165;28;20033;-54
2023/08/25 09:20:35;;;;;;;3.10;2.00;;;22.20;75.50;;;;;;5026239;28;20045;-54
2023/08/25 09:23:02;;;;;;;4.72;2.30;;;22.20;75.30;;;;;;5030480;28;20073;-54
2023/08/25 09:25:29;;;;;;;5.47;2.85;;;22.20;75.40;;;;;;5028927;28;20030;-53
2023/08/25 09:27:57;;;;;;;3.58;2.50;;;22.10;75.30;;;;;;5029771;28;20059;-54
2023/08/25 09:30:41;;;;;;;5.35;2.92;;;22.10;75.30;;;;;;5027787;28;20045;-49
2023/08/25 09:33:10;;;;;;;7.05;3.10;;;22.10;76.20;;;;;;5029441;28;20037;-55
2023/08/25 09:35:37;;;;;;;6.07;2.60;;;22.10;75.80;;;;;;5027218;28;20156;-54
2023/08/25 09:38:06;;;;;;;6.75;3.00;;;22.00;76.00;;;;;;5027028;28;20478;-54
2023/08/25 09:40:36;;;;;;;3.67;2.55;;;22.10;76.10;;;;;;5025733;28;20053;-54
2023/08/25 09:43:04;;;;;;;5.25;2.80;;;22.00;76.10;;;;;;5029958;28;20508;-54
2023/08/25 09:45:32;;;;;;;8.10;2.50;;;22.00;76.40;;;;;;5027143;28;20033;-55
2023/08/25 09:48:06;;;;;;;5.07;2.45;;;22.00;76.50;;;;;;5024423;28;20507;-53
2023/08/25 09:50:41;;;;;;;3.30;1.92;;;22.00;76.70;;;;;;5027322;28;20508;-54
2023/08/25 09:53:09;;;;;;;3.15;2.28;;;22.00;76.60;;;;;;5028364;28;20131;-54
2023/08/25 09:55:37;;;;;;;2.63;1.33;;;22.00;76.20;;;;;;5030696;28;20198;-55
2023/08/25 09:58:08;;;;;;;4.07;1.60;;;21.90;75.90;;;;;;5012438;28;20033;-54
2023/08/25 10:00:37;;;;;;;2.92;2.03;;;21.90;76.60;;;;;;5027361;28;20057;-54
2023/08/25 10:03:08;;;;;;;3.47;1.80;;;21.90;76.90;;;;;;5029283;28;20072;-55
2023/08/25 10:05:39;;;;;;;5.00;1.92;;;21.90;77.20;;;;;;5024702;28;20049;-55
2023/08/25 10:08:08;;;;;;;3.08;1.25;;;21.90;77.10;;;;;;5028572;28;20036;-53
2023/08/25 10:10:36;;;;;;;2.13;1.13;;;21.90;77.30;;;;;;5029072;28;20095;-54
2023/08/25 10:13:04;;;;;;;3.00;1.50;;;21.90;77.20;;;;;;5028041;28;20037;-52
2023/08/25 10:15:32;;;;;;;3.42;1.42;;;21.90;77.50;;;;;;5029310;28;20045;-55
2023/08/25 10:18:06;;;;;;;5.03;1.48;;;21.90;77.50;;;;;;5027256;28;20073;-55
2023/08/25 10:20:35;;;;;;;2.67;1.77;;;21.90;77.30;;;;;;5027836;28;20504;-53
2023/08/25 10:23:08;;;;;;;2.33;1.33;;;21.90;77.50;;;;;;5029334;28;20045;-52
2023/08/25 10:25:37;;;;;;;2.25;1.15;;;21.90;77.30;;;;;;5029305;28;20042;-54
2023/08/25 10:28:06;;;;;;;1.60;1.33;;;22.00;77.50;;;;;;5026431;28;20073;-54
2023/08/25 10:30:33;;;;;;;2.60;1.52;;;22.00;77.60;;;;;;5007953;28;20080;-54
2023/08/25 10:33:07;;;;;;;3.10;1.58;;;22.00;77.60;;;;;;5077841;23;20076;-53
2023/08/25 10:35:45;;;;;;;1.65;1.55;;;22.00;77.90;;;;;;5021725;28;20049;-52
2023/08/25 10:38:18;;;;;;;2.83;1.50;;;22.00;78.30;;;;;;5029259;28;20042;-51
2023/08/25 10:40:52;;;;;;;5.55;2.15;;;22.10;78.80;;;;;;5028209;28;20495;-51
2023/08/25 10:43:23;;;;;;;4.88;2.88;;;22.10;79.00;;;;;;5027277;28;20053;-54
2023/08/25 10:45:51;;;;;;;4.00;2.13;;;22.20;79.00;;;;;;5028129;28;20139;-53
2023/08/25 10:48:23;;;;;;;3.58;2.42;;;22.30;78.70;;;;;;5029288;28;20037;-53
2023/08/25 10:51:16;;;;;;;5.18;2.50;;;22.40;78.30;;;;;;5024173;28;20571;-55
2023/08/25 10:53:50;;;;;;;3.10;2.38;;;22.50;78.30;;;;;;5025390;28;20065;-53
2023/08/25 10:56:22;;;;;;;2.47;2.28;;;22.50;78.00;;;;;;5024303;28;20092;-55
2023/08/25 10:59:04;;;;;;;2.53;2.33;;;22.60;77.50;;;;;;5027101;28;20591;-52
2023/08/25 11:01:37;;;;;;;4.25;2.80;;;22.70;77.60;;;;;;5027217;28;20116;-54
2023/08/25 11:04:20;;;;;;;2.15;1.70;;;22.70;77.50;;;;;;5028231;28;20686;-54
2023/08/25 11:06:48;;;;;;;2.67;1.80;;;22.70;77.10;;;;;;5028289;28;20068;-53
2023/08/25 11:09:18;;;;;;;4.18;2.13;;;22.70;76.90;;;;;;5021615;28;20034;-54
2023/08/25 11:11:46;;;;;;;2.30;1.48;;;22.80;77.30;;;;;;5027197;28;20049;-56
2023/08/25 11:14:14;;;;;;;2.10;1.77;;;22.80;77.10;;;;;;5023267;28;20456;-56
2023/08/25 11:16:41;;;;;;;2.72;1.70;;;22.80;77.10;;;;;;5021992;28;20045;-55
2023/08/25 11:19:14;;;;;;;2.42;1.90;;;22.80;77.20;;;;;;5026484;28;20041;-56
2023/08/25 11:21:43;;;;;;;;;;;22.90;77.50;;;;;;5019103;28;20125;-53
2023/08/25 11:24:22;;;;;;;4.00;1.80;;;23.00;77.40;;;;;;5011278;28;19976;-55
2023/08/25 11:26:48;;;;;;;4.20;1.92;;;23.00;77.40;;;;;;5027683;28;20115;-52
2023/08/25 11:29:15;;;;;;;4.22;1.48;;;23.00;77.20;;;;;;5027230;28;20120;-52
2023/08/25 11:31:44;;;;;;;1.98;1.58;;;23.10;77.70;;;;;;5024054;28;20468;-52
2023/08/25 11:34:11;;;;;;;2.65;1.90;;;23.30;78.20;;;;;;5028561;28;21035;-52
2023/08/25 11:36:42;;;;;;;2.92;2.03;;;23.40;78.50;;;;;;5024733;28;20038;-51
2023/08/25 11:39:16;;;;;;;2.80;2.10;;;23.60;78.40;;;;;;5029880;28;20086;-51
2023/08/25 11:41:45;;;;;;;2.38;1.67;;;23.70;78.40;;;;;;5027543;28;20048;-52
2023/08/25 11:44:12;;;;;;;2.55;1.60;;;23.90;78.70;;;;;;5030488;28;20415;-52
2023/08/25 11:46:42;;;;;;;1.38;1.20;;;24.10;77.70;;;;;;5031125;28;20049;-51
2023/08/25 11:49:09;;;;;;;2.63;1.40;;;24.20;76.70;;;;;;5033756;28;20034;-52
2023/08/25 11:51:38;;;;;;;1.70;1.45;;;24.30;76.00;;;;;;5032323;28;20042;-53
2023/08/25 11:54:06;;;;;;;1.67;1.42;;;24.40;75.30;;;;;;5031354;28;20057;-51
2023/08/25 11:56:34;;;;;;;3.22;1.38;;;24.50;74.80;;;;;;5032172;28;20056;-52
2023/08/25 11:59:03;;;;;;;1.70;1.48;;;24.50;74.30;;;;;;5032138;28;20038;-51
2023/08/25 12:01:32;;;;;;;2.33;1.42;;;24.50;74.60;;;;;;5031730;28;20062;-51
2023/08/25 12:03:59;;;;;;;1.52;1.42;;;24.50;74.70;;;;;;5013536;28;20522;-52
2023/08/25 12:06:26;;;;;;;3.20;1.55;;;24.60;74.60;;;;;;5032080;28;20068;-52
2023/08/25 12:08:55;;;;;;;1.52;1.42;;;24.60;74.20;;;;;;5032099;28;20049;-50
2023/08/25 12:11:22;;;;;;;3.20;1.80;;;24.70;74.30;;;;;;5026231;28;20075;-49
2023/08/25 12:13:51;;;;;;;4.00;1.67;;;24.70;74.40;;;;;;5031745;28;20455;-52
2023/08/25 12:16:18;;;;;;;1.85;1.75;;;24.80;74.30;;;;;;5031754;28;20095;-52
2023/08/25 12:18:52;;;;;;;2.50;2.20;;;24.80;74.10;;;;;;5012620;28;20120;-52
2023/08/25 12:21:19;;;;;;;2.25;2.05;;;24.90;74.50;;;;;;5030884;28;20080;-51
2023/08/25 12:23:46;;;;;;;3.42;1.73;;;25.00;74.30;;;;;;5032035;28;20068;-52
2023/08/25 12:26:13;;;;;;;1.80;1.60;;;25.10;74.50;;;;;;5031107;28;20188;-51
2023/08/25 12:28:47;;;;;;;4.15;2.55;;;25.10;74.80;;;;;;5030074;28;20041;-52
2023/08/25 12:31:16;;;;;;;2.88;2.15;;;25.30;74.90;;;;;;5030759;28;20100;-50
2023/08/25 12:33:46;;;;;;;2.45;2.25;;;25.50;74.00;;;;;;5031754;28;20041;-50
2023/08/25 12:36:15;;;;;;;3.45;2.45;;;25.60;73.80;;;;;;5029163;28;20033;-50
2023/08/25 12:38:43;;;;;;;2.47;2.05;;;25.70;73.90;;;;;;5028065;28;20099;-49
2023/08/25 12:41:10;;;;;;;3.85;2.10;;;25.90;74.10;;;;;;5023193;28;20195;-49
2023/08/25 12:43:37;;;;;;;4.40;2.15;;;26.10;74.00;;;;;;5027806;28;20073;-50
2023/08/25 12:46:04;;;;;;;3.25;2.20;;;26.20;73.90;;;;;;5029426;28;20496;-49
2023/08/25 12:48:32;;;;;;;3.40;1.75;;;26.50;74.30;;;;;;5028923;28;20041;-50
2023/08/25 12:50:59;;;;;;;2.58;2.22;;;26.80;73.40;;;;;;5029433;28;20041;-50
2023/08/25 12:53:26;;;;;;;4.05;1.98;;;27.00;72.00;;;;;;5029422;28;20120;-50
2023/08/25 12:55:53;;;;;;;2.83;1.77;;;27.20;71.10;;;;;;5029844;28;20140;-49
2023/08/25 12:58:19;;;;;;;3.92;1.85;;;27.30;70.80;;;;;;5030386;28;20049;-47
2023/08/25 13:00:46;;;;;;;3.03;2.03;;;27.40;70.60;;;;;;5029784;28;20072;-50